sensor_id;sensor_type;location;lat;lon;timestamp;temperature;humidity
33841;DHT22;20142;28.494;-16.312;2023-05-27T00:01:48;20.70;75.70
33841;DHT22;20142;28.494;-16.312;2023-05-27T00:06:49;20.60;75.70
33841;DHT22;20142;28.494;-16.312;2023-05-27T00:11:51;20.70;75.60
33841;DHT22;20142;28.494;-16.312;2023-05-27T00:16:53;20.70;75.50
33841;DHT22;20142;28.494;-16.312;2023-05-27T00:21:56;20.80;75.20
33841;DHT22;20142;28.494;-16.312;2023-05-27T00:26:58;20.70;75.40
33841;DHT22;20142;28.494;-16.312;2023-05-27T00:32:00;20.50;74.80
33841;DHT22;20142;28.494;-16.312;2023-05-27T00:37:05;20.10;75.50
33841;DHT22;20142;28.494;-16.312;2023-05-27T00:42:08;20.00;76.00
33841;DHT22;20142;28.494;-16.312;2023-05-27T00:47:09;19.90;75.70
33841;DHT22;20142;28.494;-16.312;2023-05-27T00:52:11;20.00;76.30
33841;DHT22;20142;28.494;-16.312;2023-05-27T00:57:14;19.90;76.20
33841;DHT22;20142;28.494;-16.312;2023-05-27T01:02:16;19.70;76.30
33841;DHT22;20142;28.494;-16.312;2023-05-27T01:12:59;19.60;77.10
33841;DHT22;20142;28.494;-16.312;2023-05-27T01:18:03;19.70;77.10
33841;DHT22;20142;28.494;-16.312;2023-05-27T01:23:05;19.50;76.80
33841;DHT22;20142;28.494;-16.312;2023-05-27T01:28:06;19.40;77.20
33841;DHT22;20142;28.494;-16.312;2023-05-27T01:33:12;19.20;77.60
33841;DHT22;20142;28.494;-16.312;2023-05-27T01:38:18;19.20;77.80
33841;DHT22;20142;28.494;-16.312;2023-05-27T01:43:21;19.00;78.10
33841;DHT22;20142;28.494;-16.312;2023-05-27T01:48:23;18.90;78.40
33841;DHT22;20142;28.494;-16.312;2023-05-27T01:53:25;18.80;78.60
33841;DHT22;20142;28.494;-16.312;2023-05-27T01:58:27;18.90;78.90
33841;DHT22;20142;28.494;-16.312;2023-05-27T02:03:28;18.70;78.90
33841;DHT22;20142;28.494;-16.312;2023-05-27T02:08:30;18.60;79.00
33841;DHT22;20142;28.494;-16.312;2023-05-27T02:13:32;18.60;79.10
33841;DHT22;20142;28.494;-16.312;2023-05-27T02:18:35;18.50;79.20
33841;DHT22;20142;28.494;-16.312;2023-05-27T02:23:36;18.50;79.20
33841;DHT22;20142;28.494;-16.312;2023-05-27T02:28:38;18.40;79.50
33841;DHT22;20142;28.494;-16.312;2023-05-27T02:33:40;18.30;79.70
33841;DHT22;20142;28.494;-16.312;2023-05-27T02:38:41;18.20;79.90
33841;DHT22;20142;28.494;-16.312;2023-05-27T02:43:43;18.20;80.10
33841;DHT22;20142;28.494;-16.312;2023-05-27T02:48:45;18.20;80.30
33841;DHT22;20142;28.494;-16.312;2023-05-27T02:53:49;18.40;80.10
33841;DHT22;20142;28.494;-16.312;2023-05-27T02:58:51;18.30;80.20
33841;DHT22;20142;28.494;-16.312;2023-05-27T03:03:53;18.30;80.50
33841;DHT22;20142;28.494;-16.312;2023-05-27T03:08:55;18.10;81.00
33841;DHT22;20142;28.494;-16.312;2023-05-27T03:13:56;18.10;81.20
33841;DHT22;20142;28.494;-16.312;2023-05-27T03:18:58;18.10;81.40
33841;DHT22;20142;28.494;-16.312;2023-05-27T03:24:00;18.00;81.60
33841;DHT22;20142;28.494;-16.312;2023-05-27T03:29:01;18.00;81.80
33841;DHT22;20142;28.494;-16.312;2023-05-27T03:34:03;18.10;81.60
33841;DHT22;20142;28.494;-16.312;2023-05-27T03:39:04;18.10;81.50
33841;DHT22;20142;28.494;-16.312;2023-05-27T03:44:07;18.10;81.70
33841;DHT22;20142;28.494;-16.312;2023-05-27T03:49:08;18.00;81.60
33841;DHT22;20142;28.494;-16.312;2023-05-27T03:54:10;18.10;81.70
33841;DHT22;20142;28.494;-16.312;2023-05-27T03:59:12;18.00;81.80
33841;DHT22;20142;28.494;-16.312;2023-05-27T04:04:14;18.10;81.60
33841;DHT22;20142;28.494;-16.312;2023-05-27T04:09:16;18.10;81.40
33841;DHT22;20142;28.494;-16.312;2023-05-27T04:14:17;18.00;81.60
33841;DHT22;20142;28.494;-16.312;2023-05-27T04:19:19;17.90;81.50
33841;DHT22;20142;28.494;-16.312;2023-05-27T04:24:21;17.90;81.60
33841;DHT22;20142;28.494;-16.312;2023-05-27T04:29:23;17.90;81.30
33841;DHT22;20142;28.494;-16.312;2023-05-27T04:34:25;17.80;81.40
33841;DHT22;20142;28.494;-16.312;2023-05-27T04:39:27;17.70;81.30
33841;DHT22;20142;28.494;-16.312;2023-05-27T04:44:28;17.60;80.80
33841;DHT22;20142;28.494;-16.312;2023-05-27T04:49:30;17.50;81.10
33841;DHT22;20142;28.494;-16.312;2023-05-27T04:54:33;17.40;81.40
33841;DHT22;20142;28.494;-16.312;2023-05-27T04:59:35;17.50;80.80
33841;DHT22;20142;28.494;-16.312;2023-05-27T05:04:47;17.50;80.80
33841;DHT22;20142;28.494;-16.312;2023-05-27T05:09:49;17.40;80.30
33841;DHT22;20142;28.494;-16.312;2023-05-27T05:14:51;17.40;80.80
33841;DHT22;20142;28.494;-16.312;2023-05-27T05:19:53;17.50;80.50
33841;DHT22;20142;28.494;-16.312;2023-05-27T05:24:56;17.50;80.40
33841;DHT22;20142;28.494;-16.312;2023-05-27T05:29:58;17.30;80.20
33841;DHT22;20142;28.494;-16.312;2023-05-27T05:34:59;17.10;80.70
33841;DHT22;20142;28.494;-16.312;2023-05-27T05:40:01;17.20;80.30
33841;DHT22;20142;28.494;-16.312;2023-05-27T05:45:04;17.00;80.60
33841;DHT22;20142;28.494;-16.312;2023-05-27T05:50:06;17.00;80.60
33841;DHT22;20142;28.494;-16.312;2023-05-27T05:55:08;17.00;80.90
33841;DHT22;20142;28.494;-16.312;2023-05-27T06:00:11;16.90;81.10
33841;DHT22;20142;28.494;-16.312;2023-05-27T06:05:13;17.00;81.30
33841;DHT22;20142;28.494;-16.312;2023-05-27T06:10:15;17.20;81.10
33841;DHT22;20142;28.494;-16.312;2023-05-27T06:15:18;17.10;80.80
33841;DHT22;20142;28.494;-16.312;2023-05-27T06:20:20;17.10;81.40
33841;DHT22;20142;28.494;-16.312;2023-05-27T06:25:21;17.20;81.20
33841;DHT22;20142;28.494;-16.312;2023-05-27T06:30:23;17.30;81.40
33841;DHT22;20142;28.494;-16.312;2023-05-27T06:35:25;17.30;81.30
33841;DHT22;20142;28.494;-16.312;2023-05-27T06:40:26;17.40;81.10
33841;DHT22;20142;28.494;-16.312;2023-05-27T06:45:28;17.50;81.10
33841;DHT22;20142;28.494;-16.312;2023-05-27T06:50:30;17.50;81.30
33841;DHT22;20142;28.494;-16.312;2023-05-27T06:55:31;17.40;82.60
33841;DHT22;20142;28.494;-16.312;2023-05-27T07:00:33;17.60;82.40
33841;DHT22;20142;28.494;-16.312;2023-05-27T07:05:35;17.80;81.80
33841;DHT22;20142;28.494;-16.312;2023-05-27T07:10:36;17.90;81.60
33841;DHT22;20142;28.494;-16.312;2023-05-27T07:15:38;18.00;81.70
33841;DHT22;20142;28.494;-16.312;2023-05-27T07:20:39;18.00;81.60
33841;DHT22;20142;28.494;-16.312;2023-05-27T07:25:41;18.20;81.50
33841;DHT22;20142;28.494;-16.312;2023-05-27T07:30:43;18.50;81.30
33841;DHT22;20142;28.494;-16.312;2023-05-27T07:35:45;18.40;81.30
33841;DHT22;20142;28.494;-16.312;2023-05-27T07:40:47;18.60;81.50
33841;DHT22;20142;28.494;-16.312;2023-05-27T07:45:48;18.70;81.50
33841;DHT22;20142;28.494;-16.312;2023-05-27T07:50:50;18.80;81.60
33841;DHT22;20142;28.494;-16.312;2023-05-27T07:55:52;19.00;81.60
33841;DHT22;20142;28.494;-16.312;2023-05-27T08:00:53;19.20;81.10
33841;DHT22;20142;28.494;-16.312;2023-05-27T08:05:55;19.40;81.20
33841;DHT22;20142;28.494;-16.312;2023-05-27T08:10:57;19.50;81.30
33841;DHT22;20142;28.494;-16.312;2023-05-27T08:15:58;19.80;80.90
33841;DHT22;20142;28.494;-16.312;2023-05-27T08:21:00;19.90;80.60
33841;DHT22;20142;28.494;-16.312;2023-05-27T08:26:02;20.10;80.50
33841;DHT22;20142;28.494;-16.312;2023-05-27T08:31:04;20.30;80.30
33841;DHT22;20142;28.494;-16.312;2023-05-27T08:36:06;20.30;80.40
33841;DHT22;20142;28.494;-16.312;2023-05-27T08:41:08;20.70;80.80
33841;DHT22;20142;28.494;-16.312;2023-05-27T08:46:09;20.90;79.70
33841;DHT22;20142;28.494;-16.312;2023-05-27T08:51:13;21.20;79.50
33841;DHT22;20142;28.494;-16.312;2023-05-27T08:56:17;21.30;78.40
33841;DHT22;20142;28.494;-16.312;2023-05-27T09:01:22;21.50;78.80
33841;DHT22;20142;28.494;-16.312;2023-05-27T09:06:24;21.30;77.30
33841;DHT22;20142;28.494;-16.312;2023-05-27T09:11:27;21.10;77.90
33841;DHT22;20142;28.494;-16.312;2023-05-27T09:16:30;21.40;77.60
33841;DHT22;20142;28.494;-16.312;2023-05-27T09:21:31;21.70;77.00
33841;DHT22;20142;28.494;-16.312;2023-05-27T09:26:33;21.80;77.00
33841;DHT22;20142;28.494;-16.312;2023-05-27T09:31:41;21.90;76.30
33841;DHT22;20142;28.494;-16.312;2023-05-27T09:36:47;22.10;75.10
33841;DHT22;20142;28.494;-16.312;2023-05-27T09:41:54;22.20;74.70
33841;DHT22;20142;28.494;-16.312;2023-05-27T09:47:02;22.40;74.90
33841;DHT22;20142;28.494;-16.312;2023-05-27T09:52:05;22.10;74.20
33841;DHT22;20142;28.494;-16.312;2023-05-27T09:57:11;21.80;74.50
33841;DHT22;20142;28.494;-16.312;2023-05-27T10:02:17;21.80;73.90
33841;DHT22;20142;28.494;-16.312;2023-05-27T10:07:19;22.10;74.30
33841;DHT22;20142;28.494;-16.312;2023-05-27T10:12:25;22.40;74.10
33841;DHT22;20142;28.494;-16.312;2023-05-27T10:17:27;22.10;73.90
33841;DHT22;20142;28.494;-16.312;2023-05-27T10:22:39;22.30;73.90
33841;DHT22;20142;28.494;-16.312;2023-05-27T10:27:49;22.30;73.90
33841;DHT22;20142;28.494;-16.312;2023-05-27T10:32:51;22.40;74.70
33841;DHT22;20142;28.494;-16.312;2023-05-27T10:37:55;22.50;74.70
33841;DHT22;20142;28.494;-16.312;2023-05-27T10:43:00;22.60;74.10
33841;DHT22;20142;28.494;-16.312;2023-05-27T10:48:03;22.60;73.80
33841;DHT22;20142;28.494;-16.312;2023-05-27T10:53:06;22.60;74.40
33841;DHT22;20142;28.494;-16.312;2023-05-27T10:58:08;22.70;74.20
33841;DHT22;20142;28.494;-16.312;2023-05-27T11:08:23;22.70;74.80
33841;DHT22;20142;28.494;-16.312;2023-05-27T11:13:32;23.10;74.70
33841;DHT22;20142;28.494;-16.312;2023-05-27T11:18:47;23.60;74.00
33841;DHT22;20142;28.494;-16.312;2023-05-27T11:23:49;23.60;73.70
33841;DHT22;20142;28.494;-16.312;2023-05-27T11:28:57;23.30;73.70
33841;DHT22;20142;28.494;-16.312;2023-05-27T11:33:59;23.20;73.10
33841;DHT22;20142;28.494;-16.312;2023-05-27T11:39:01;22.90;73.50
33841;DHT22;20142;28.494;-16.312;2023-05-27T11:44:06;22.90;73.90
33841;DHT22;20142;28.494;-16.312;2023-05-27T11:49:09;23.00;73.90
33841;DHT22;20142;28.494;-16.312;2023-05-27T11:54:30;23.10;73.80
33841;DHT22;20142;28.494;-16.312;2023-05-27T11:59:33;23.50;73.30
33841;DHT22;20142;28.494;-16.312;2023-05-27T12:04:36;23.80;72.10
33841;DHT22;20142;28.494;-16.312;2023-05-27T12:09:37;23.80;71.20
33841;DHT22;20142;28.494;-16.312;2023-05-27T12:14:39;23.80;72.20
33841;DHT22;20142;28.494;-16.312;2023-05-27T12:19:40;23.80;72.00
33841;DHT22;20142;28.494;-16.312;2023-05-27T12:24:42;23.70;71.60
33841;DHT22;20142;28.494;-16.312;2023-05-27T12:29:44;24.10;71.90
33841;DHT22;20142;28.494;-16.312;2023-05-27T12:34:47;24.50;71.40
33841;DHT22;20142;28.494;-16.312;2023-05-27T12:39:49;25.00;71.40
33841;DHT22;20142;28.494;-16.312;2023-05-27T12:44:50;25.60;70.60
33841;DHT22;20142;28.494;-16.312;2023-05-27T12:49:54;25.70;69.00
33841;DHT22;20142;28.494;-16.312;2023-05-27T12:54:55;25.90;69.70
33841;DHT22;20142;28.494;-16.312;2023-05-27T12:59:58;25.60;68.40
33841;DHT22;20142;28.494;-16.312;2023-05-27T13:04:59;25.00;69.50
33841;DHT22;20142;28.494;-16.312;2023-05-27T13:10:03;24.80;69.20
33841;DHT22;20142;28.494;-16.312;2023-05-27T13:15:06;24.90;69.10
33841;DHT22;20142;28.494;-16.312;2023-05-27T13:20:09;24.90;68.60
33841;DHT22;20142;28.494;-16.312;2023-05-27T13:25:12;24.80;68.10
33841;DHT22;20142;28.494;-16.312;2023-05-27T13:30:15;24.80;69.00
33841;DHT22;20142;28.494;-16.312;2023-05-27T13:35:17;25.00;68.90
33841;DHT22;20142;28.494;-16.312;2023-05-27T13:40:19;25.20;68.80
33841;DHT22;20142;28.494;-16.312;2023-05-27T13:45:21;25.20;68.30
33841;DHT22;20142;28.494;-16.312;2023-05-27T13:50:22;25.50;67.90
33841;DHT22;20142;28.494;-16.312;2023-05-27T13:55:24;25.60;67.60
33841;DHT22;20142;28.494;-16.312;2023-05-27T14:00:26;26.00;66.50
33841;DHT22;20142;28.494;-16.312;2023-05-27T14:05:27;26.90;66.40
33841;DHT22;20142;28.494;-16.312;2023-05-27T14:10:32;26.60;65.10
33841;DHT22;20142;28.494;-16.312;2023-05-27T14:15:34;25.90;65.90
33841;DHT22;20142;28.494;-16.312;2023-05-27T14:20:36;25.40;65.80
33841;DHT22;20142;28.494;-16.312;2023-05-27T14:25:38;25.10;65.40
33841;DHT22;20142;28.494;-16.312;2023-05-27T14:30:40;25.10;65.30
33841;DHT22;20142;28.494;-16.312;2023-05-27T14:35:42;25.30;65.10
33841;DHT22;20142;28.494;-16.312;2023-05-27T14:40:46;25.00;64.20
33841;DHT22;20142;28.494;-16.312;2023-05-27T14:45:48;24.60;64.90
33841;DHT22;20142;28.494;-16.312;2023-05-27T14:50:50;24.70;64.90
33841;DHT22;20142;28.494;-16.312;2023-05-27T14:55:52;24.90;65.20
33841;DHT22;20142;28.494;-16.312;2023-05-27T15:00:56;25.90;65.30
33841;DHT22;20142;28.494;-16.312;2023-05-27T15:05:58;26.10;63.90
33841;DHT22;20142;28.494;-16.312;2023-05-27T15:11:00;26.00;63.50
33841;DHT22;20142;28.494;-16.312;2023-05-27T15:16:01;26.00;63.20
33841;DHT22;20142;28.494;-16.312;2023-05-27T15:21:03;25.80;63.00
33841;DHT22;20142;28.494;-16.312;2023-05-27T15:26:05;25.30;63.60
33841;DHT22;20142;28.494;-16.312;2023-05-27T15:31:06;25.40;64.30
33841;DHT22;20142;28.494;-16.312;2023-05-27T15:36:10;26.00;64.30
33841;DHT22;20142;28.494;-16.312;2023-05-27T15:41:11;26.00;63.30
33841;DHT22;20142;28.494;-16.312;2023-05-27T15:46:13;25.60;63.60
33841;DHT22;20142;28.494;-16.312;2023-05-27T15:51:15;25.50;63.80
33841;DHT22;20142;28.494;-16.312;2023-05-27T15:56:17;25.40;64.70
33841;DHT22;20142;28.494;-16.312;2023-05-27T16:01:19;25.50;64.20
33841;DHT22;20142;28.494;-16.312;2023-05-27T16:06:20;25.60;64.30
33841;DHT22;20142;28.494;-16.312;2023-05-27T16:11:22;25.80;64.70
33841;DHT22;20142;28.494;-16.312;2023-05-27T16:16:24;25.50;64.80
33841;DHT22;20142;28.494;-16.312;2023-05-27T16:21:27;25.80;65.20
33841;DHT22;20142;28.494;-16.312;2023-05-27T16:26:28;25.60;64.60
33841;DHT22;20142;28.494;-16.312;2023-05-27T16:31:30;27.00;65.70
33841;DHT22;20142;28.494;-16.312;2023-05-27T16:36:32;31.50;63.30
33841;DHT22;20142;28.494;-16.312;2023-05-27T16:41:34;34.30;60.00
33841;DHT22;20142;28.494;-16.312;2023-05-27T16:46:36;34.90;53.50
33841;DHT22;20142;28.494;-16.312;2023-05-27T16:51:37;34.80;49.40
33841;DHT22;20142;28.494;-16.312;2023-05-27T16:56:39;31.40;48.90
33841;DHT22;20142;28.494;-16.312;2023-05-27T17:01:41;32.80;49.60
33841;DHT22;20142;28.494;-16.312;2023-05-27T17:06:43;34.60;47.30
33841;DHT22;20142;28.494;-16.312;2023-05-27T17:11:45;34.40;45.90
33841;DHT22;20142;28.494;-16.312;2023-05-27T17:16:47;32.60;45.10
33841;DHT22;20142;28.494;-16.312;2023-05-27T17:21:48;31.20;45.80
33841;DHT22;20142;28.494;-16.312;2023-05-27T17:26:50;31.90;46.20
33841;DHT22;20142;28.494;-16.312;2023-05-27T17:31:52;33.10;45.70
33841;DHT22;20142;28.494;-16.312;2023-05-27T17:36:53;32.20;46.50
33841;DHT22;20142;28.494;-16.312;2023-05-27T17:41:55;30.50;48.10
33841;DHT22;20142;28.494;-16.312;2023-05-27T17:46:57;29.50;49.60
33841;DHT22;20142;28.494;-16.312;2023-05-27T17:51:59;28.80;51.30
33841;DHT22;20142;28.494;-16.312;2023-05-27T17:57:00;28.20;51.90
33841;DHT22;20142;28.494;-16.312;2023-05-27T18:02:02;27.90;52.50
33841;DHT22;20142;28.494;-16.312;2023-05-27T18:07:04;27.60;53.40
33841;DHT22;20142;28.494;-16.312;2023-05-27T18:12:06;27.30;53.60
33841;DHT22;20142;28.494;-16.312;2023-05-27T18:17:08;26.80;54.00
33841;DHT22;20142;28.494;-16.312;2023-05-27T18:22:09;26.00;56.10
33841;DHT22;20142;28.494;-16.312;2023-05-27T18:27:11;25.60;56.40
33841;DHT22;20142;28.494;-16.312;2023-05-27T18:32:13;25.30;57.10
33841;DHT22;20142;28.494;-16.312;2023-05-27T18:37:15;25.10;57.70
33841;DHT22;20142;28.494;-16.312;2023-05-27T18:42:16;24.80;58.40
33841;DHT22;20142;28.494;-16.312;2023-05-27T18:47:18;24.70;59.50
33841;DHT22;20142;28.494;-16.312;2023-05-27T18:52:20;24.40;59.90
33841;DHT22;20142;28.494;-16.312;2023-05-27T18:57:21;24.20;60.70
33841;DHT22;20142;28.494;-16.312;2023-05-27T19:02:23;24.10;61.40
33841;DHT22;20142;28.494;-16.312;2023-05-27T19:07:25;24.00;62.00
33841;DHT22;20142;28.494;-16.312;2023-05-27T19:12:27;23.80;62.40
33841;DHT22;20142;28.494;-16.312;2023-05-27T19:17:28;23.70;63.30
33841;DHT22;20142;28.494;-16.312;2023-05-27T19:22:30;23.60;63.50
33841;DHT22;20142;28.494;-16.312;2023-05-27T19:27:32;23.70;63.90
33841;DHT22;20142;28.494;-16.312;2023-05-27T19:32:34;23.70;64.10
33841;DHT22;20142;28.494;-16.312;2023-05-27T19:37:36;23.50;64.90
33841;DHT22;20142;28.494;-16.312;2023-05-27T19:42:38;22.90;68.80
33841;DHT22;20142;28.494;-16.312;2023-05-27T19:47:39;22.90;70.10
33841;DHT22;20142;28.494;-16.312;2023-05-27T19:52:41;22.80;68.90
33841;DHT22;20142;28.494;-16.312;2023-05-27T19:57:43;22.80;68.90
33841;DHT22;20142;28.494;-16.312;2023-05-27T20:02:44;22.50;68.90
33841;DHT22;20142;28.494;-16.312;2023-05-27T20:07:47;22.40;69.70
33841;DHT22;20142;28.494;-16.312;2023-05-27T20:12:49;22.50;69.90
33841;DHT22;20142;28.494;-16.312;2023-05-27T20:17:51;22.40;70.00
33841;DHT22;20142;28.494;-16.312;2023-05-27T20:22:53;22.50;70.50
33841;DHT22;20142;28.494;-16.312;2023-05-27T20:27:55;22.40;71.30
33841;DHT22;20142;28.494;-16.312;2023-05-27T20:32:56;22.40;70.90
33841;DHT22;20142;28.494;-16.312;2023-05-27T20:37:58;22.50;70.90
33841;DHT22;20142;28.494;-16.312;2023-05-27T20:43:01;22.40;71.40
33841;DHT22;20142;28.494;-16.312;2023-05-27T20:48:04;22.40;71.40
33841;DHT22;20142;28.494;-16.312;2023-05-27T20:53:07;22.20;71.70
33841;DHT22;20142;28.494;-16.312;2023-05-27T20:58:09;22.30;71.90
33841;DHT22;20142;28.494;-16.312;2023-05-27T21:03:11;22.30;72.20
33841;DHT22;20142;28.494;-16.312;2023-05-27T21:08:13;22.10;72.10
33841;DHT22;20142;28.494;-16.312;2023-05-27T21:13:14;21.70;71.80
33841;DHT22;20142;28.494;-16.312;2023-05-27T21:18:16;21.30;72.60
33841;DHT22;20142;28.494;-16.312;2023-05-27T21:23:18;21.30;72.90
33841;DHT22;20142;28.494;-16.312;2023-05-27T21:28:19;21.30;72.90
33841;DHT22;20142;28.494;-16.312;2023-05-27T21:33:21;21.10;72.60
33841;DHT22;20142;28.494;-16.312;2023-05-27T21:38:23;20.90;72.60
33841;DHT22;20142;28.494;-16.312;2023-05-27T21:43:27;21.10;73.00
33841;DHT22;20142;28.494;-16.312;2023-05-27T21:48:28;20.80;73.80
33841;DHT22;20142;28.494;-16.312;2023-05-27T21:53:30;20.90;72.90
33841;DHT22;20142;28.494;-16.312;2023-05-27T21:58:32;20.90;73.00
33841;DHT22;20142;28.494;-16.312;2023-05-27T22:03:33;20.80;73.10
33841;DHT22;20142;28.494;-16.312;2023-05-27T22:08:35;20.80;72.90
33841;DHT22;20142;28.494;-16.312;2023-05-27T22:13:37;20.70;73.30
33841;DHT22;20142;28.494;-16.312;2023-05-27T22:18:39;20.60;73.30
33841;DHT22;20142;28.494;-16.312;2023-05-27T22:23:40;20.50;74.00
33841;DHT22;20142;28.494;-16.312;2023-05-27T22:28:42;20.50;73.90
33841;DHT22;20142;28.494;-16.312;2023-05-27T22:33:44;20.40;73.70
33841;DHT22;20142;28.494;-16.312;2023-05-27T22:38:45;20.30;74.60
33841;DHT22;20142;28.494;-16.312;2023-05-27T22:43:47;20.50;74.80
33841;DHT22;20142;28.494;-16.312;2023-05-27T22:48:49;20.60;74.20
33841;DHT22;20142;28.494;-16.312;2023-05-27T22:53:50;20.50;73.80
33841;DHT22;20142;28.494;-16.312;2023-05-27T22:58:52;20.10;74.10
33841;DHT22;20142;28.494;-16.312;2023-05-27T23:03:54;19.90;74.80
33841;DHT22;20142;28.494;-16.312;2023-05-27T23:08:55;19.90;75.10
33841;DHT22;20142;28.494;-16.312;2023-05-27T23:13:57;20.00;75.20
33841;DHT22;20142;28.494;-16.312;2023-05-27T23:18:59;20.00;75.10
33841;DHT22;20142;28.494;-16.312;2023-05-27T23:24:01;20.10;74.90
33841;DHT22;20142;28.494;-16.312;2023-05-27T23:29:03;20.10;74.90
33841;DHT22;20142;28.494;-16.312;2023-05-27T23:34:08;20.10;74.80
33841;DHT22;20142;28.494;-16.312;2023-05-27T23:39:09;20.00;75.20
33841;DHT22;20142;28.494;-16.312;2023-05-27T23:44:11;20.00;75.40
33841;DHT22;20142;28.494;-16.312;2023-05-27T23:49:13;20.00;75.50
33841;DHT22;20142;28.494;-16.312;2023-05-27T23:54:15;20.10;75.70
33841;DHT22;20142;28.494;-16.312;2023-05-27T23:59:17;20.20;75.20
